createdAt,value
2019-04-01T00:01:51.125Z,7.40
2019-04-01T00:04:19.133Z,7.40
2019-04-01T00:06:47.273Z,7.50
2019-04-01T00:09:15.378Z,7.40
2019-04-01T00:11:43.433Z,7.40
2019-04-01T00:14:11.751Z,7.40
2019-04-01T00:16:40.240Z,7.30
2019-04-01T00:19:08.237Z,7.30
2019-04-01T00:21:36.755Z,7.30
2019-04-01T00:24:19.931Z,7.20
2019-04-01T00:26:51.244Z,7.20
2019-04-01T00:29:20.480Z,7.30
2019-04-01T00:31:51.485Z,7.20
2019-04-01T00:34:19.868Z,7.20
2019-04-01T00:36:47.910Z,7.20
2019-04-01T00:39:19.328Z,7.10
2019-04-01T00:42:00.185Z,7.10
2019-04-01T00:44:28.621Z,7.10
2019-04-01T00:46:57.100Z,7.00
2019-04-01T00:49:25.250Z,7.00
2019-04-01T00:51:53.363Z,7.00
2019-04-01T00:54:21.469Z,7.00
2019-04-01T00:56:49.534Z,7.00
2019-04-01T00:59:17.644Z,7.00
2019-04-01T01:01:45.856Z,7.00
2019-04-01T01:04:14.210Z,7.00
2019-04-01T01:06:42.369Z,6.90
2019-04-01T01:09:11.989Z,6.90
2019-04-01T01:11:41.435Z,6.80
2019-04-01T01:14:09.580Z,6.70
2019-04-01T01:16:37.944Z,6.80
2019-04-01T01:19:07.467Z,6.80
2019-04-01T01:21:36.565Z,6.70
2019-04-01T01:24:04.726Z,6.70
2019-04-01T01:26:32.718Z,6.70
2019-04-01T01:29:02.163Z,6.60
2019-04-01T01:31:30.484Z,6.60
2019-04-01T01:33:58.434Z,6.50
2019-04-01T01:36:26.478Z,6.60
2019-04-01T01:38:54.897Z,6.60
2019-04-01T01:41:22.969Z,6.60
2019-04-01T01:43:51.057Z,6.40
2019-04-01T01:46:19.339Z,6.30
2019-04-01T01:48:47.543Z,6.30
2019-04-01T01:51:15.932Z,6.30
2019-04-01T01:53:44.134Z,6.30
2019-04-01T01:56:12.629Z,6.40
2019-04-01T01:58:40.917Z,6.50
2019-04-01T02:01:09.272Z,6.50
2019-04-01T02:03:37.721Z,6.50
2019-04-01T02:06:06.671Z,6.50
2019-04-01T02:08:34.792Z,6.50
2019-04-01T02:11:05.007Z,6.40
2019-04-01T02:13:33.285Z,6.50
2019-04-01T02:16:02.687Z,6.50
2019-04-01T02:18:30.690Z,6.50
2019-04-01T02:20:58.860Z,6.50
2019-04-01T02:23:27.381Z,6.40
2019-04-01T02:25:55.606Z,6.40
2019-04-01T02:28:23.823Z,6.40
2019-04-01T02:31:01.764Z,6.40
2019-04-01T02:33:33.717Z,6.40
2019-04-01T02:36:02.073Z,6.40
2019-04-01T02:38:30.387Z,6.30
2019-04-01T02:41:00.084Z,6.30
2019-04-01T02:43:28.678Z,6.30
2019-04-01T02:45:57.025Z,6.30
2019-04-01T02:48:25.338Z,6.30
2019-04-01T02:50:53.816Z,6.40
2019-04-01T02:53:22.634Z,6.40
2019-04-01T02:55:50.994Z,6.30
2019-04-01T02:58:19.117Z,6.30
2019-04-01T03:00:47.243Z,6.20
2019-04-01T03:03:15.409Z,6.20
2019-04-01T03:05:43.993Z,6.20
2019-04-01T03:08:12.286Z,6.10
2019-04-01T03:10:40.976Z,6.10
2019-04-01T03:13:09.876Z,6.10
2019-04-01T03:15:38.766Z,6.20
2019-04-01T03:18:11.268Z,6.10
2019-04-01T03:20:39.851Z,6.10
2019-04-01T03:23:12.232Z,6.10
2019-04-01T03:25:41.683Z,6.10
2019-04-01T03:28:09.979Z,6.10
2019-04-01T03:30:41.262Z,6.10
2019-04-01T03:33:09.435Z,6.10
2019-04-01T03:35:37.516Z,6.00
2019-04-01T03:38:09.090Z,6.10
2019-04-01T03:40:36.989Z,6.10
2019-04-01T03:43:05.110Z,6.10
2019-04-01T03:45:34.897Z,6.00
2019-04-01T03:48:02.954Z,6.10
2019-04-01T03:50:31.126Z,6.10
2019-04-01T03:52:59.223Z,6.10
2019-04-01T03:55:28.871Z,6.00
2019-04-01T03:57:57.412Z,6.00
2019-04-01T04:00:26.708Z,6.00
2019-04-01T04:02:55.825Z,6.00
2019-04-01T04:05:23.876Z,6.10
2019-04-01T04:07:51.880Z,6.00
2019-04-01T04:10:19.970Z,6.10
2019-04-01T04:12:47.987Z,6.00
2019-04-01T04:15:16.542Z,6.00
2019-04-01T04:17:47.900Z,6.00
2019-04-01T04:20:16.178Z,5.90
2019-04-01T04:22:45.794Z,5.90
2019-04-01T04:25:15.474Z,5.90
2019-04-01T04:27:43.574Z,5.90
2019-04-01T04:30:11.703Z,5.90
2019-04-01T04:32:39.986Z,5.90
2019-04-01T04:35:08.084Z,5.90
2019-04-01T04:37:36.343Z,5.90
2019-04-01T04:40:05.555Z,5.90
2019-04-01T04:42:34.852Z,5.90
2019-04-01T04:45:04.317Z,5.90
2019-04-01T04:47:32.376Z,5.90
2019-04-01T04:50:00.510Z,5.90
2019-04-01T04:52:28.721Z,5.90
2019-04-01T04:54:56.776Z,5.90
2019-04-01T04:57:24.863Z,5.90
2019-04-01T04:59:53.314Z,5.80
2019-04-01T05:02:24.450Z,5.80
2019-04-01T05:04:52.064Z,5.90
2019-04-01T05:07:20.612Z,5.90
2019-04-01T05:09:49.173Z,5.90
2019-04-01T05:12:17.493Z,5.90
2019-04-01T05:14:47.157Z,5.90
2019-04-01T05:17:15.241Z,5.80
2019-04-01T05:19:43.475Z,5.90
2019-04-01T05:22:12.549Z,5.80
2019-04-01T05:24:41.038Z,5.90
2019-04-01T05:27:12.339Z,5.90
2019-04-01T05:29:41.003Z,6.00
2019-04-01T05:32:10.899Z,6.10
2019-04-01T05:34:39.138Z,6.10
2019-04-01T05:37:08.903Z,6.10
2019-04-01T05:39:37.258Z,6.10
2019-04-01T05:42:05.287Z,6.10
2019-04-01T05:44:34.266Z,6.20
2019-04-01T05:47:02.330Z,6.20
2019-04-01T05:49:30.438Z,6.20
2019-04-01T05:51:58.729Z,6.20
2019-04-01T05:54:29.865Z,6.30
2019-04-01T05:56:58.052Z,6.30
2019-04-01T05:59:26.501Z,6.30
2019-04-01T06:01:54.918Z,6.40
2019-04-01T06:04:23.264Z,6.40
2019-04-01T06:06:52.342Z,6.50
2019-04-01T06:09:20.354Z,6.60
2019-04-01T06:11:48.360Z,6.60
2019-04-01T06:14:16.395Z,6.70
2019-04-01T06:16:44.309Z,6.70
2019-04-01T06:19:13.753Z,6.80
2019-04-01T06:21:42.962Z,6.80
2019-04-01T06:24:11.083Z,6.90
2019-04-01T06:26:39.518Z,6.90
2019-04-01T06:29:07.535Z,7.00
2019-04-01T06:31:35.849Z,7.00
2019-04-01T06:34:03.900Z,7.00
2019-04-01T06:36:31.974Z,7.10
2019-04-01T06:39:02.918Z,7.10
2019-04-01T06:41:33.974Z,7.10
2019-04-01T06:44:04.803Z,7.20
2019-04-01T06:46:39.017Z,7.20
2019-04-01T06:49:16.031Z,7.30
2019-04-01T06:51:44.109Z,7.30
2019-04-01T06:54:12.184Z,7.40
2019-04-01T06:56:40.612Z,7.40
2019-04-01T06:59:08.870Z,7.40
2019-04-01T07:01:37.305Z,7.50
2019-04-01T07:04:06.090Z,7.60
2019-04-01T07:06:34.527Z,7.50
2019-04-01T07:09:02.946Z,7.60
2019-04-01T07:11:37.366Z,7.60
2019-04-01T07:14:08.944Z,7.70
2019-04-01T07:16:40.223Z,7.70
2019-04-01T07:19:08.383Z,7.70
2019-04-01T07:21:36.283Z,7.70
2019-04-01T07:24:07.181Z,7.80
2019-04-01T07:26:35.209Z,7.90
2019-04-01T07:29:09.217Z,8.00
2019-04-01T07:31:38.956Z,8.00
2019-04-01T07:34:10.000Z,8.10
2019-04-01T07:36:37.993Z,8.10
2019-04-01T07:39:12.248Z,8.00
2019-04-01T07:41:40.252Z,8.10
2019-04-01T07:44:08.803Z,8.30
2019-04-01T07:46:36.785Z,8.40
2019-04-01T07:49:04.827Z,8.40
2019-04-01T07:51:32.825Z,8.50
2019-04-01T07:54:00.839Z,8.60
2019-04-01T07:56:28.860Z,8.70
2019-04-01T07:58:56.847Z,8.70
2019-04-01T08:01:25.116Z,8.70
2019-04-01T08:03:53.120Z,8.70
2019-04-01T08:06:21.124Z,8.70
2019-04-01T08:08:52.114Z,8.70
2019-04-01T08:11:20.075Z,8.80
2019-04-01T08:13:50.818Z,8.80
2019-04-01T08:16:18.837Z,8.90
2019-04-01T08:18:46.817Z,9.00
2019-04-01T08:21:17.862Z,9.00
2019-04-01T08:23:46.156Z,9.00
2019-04-01T08:26:16.990Z,9.10
2019-04-01T08:28:45.283Z,9.20
2019-04-01T08:31:13.555Z,9.30
2019-04-01T08:33:42.031Z,9.40
2019-04-01T08:36:10.054Z,9.30
2019-04-01T08:38:38.147Z,9.40
2019-04-01T08:41:09.183Z,9.50
2019-04-01T08:43:37.158Z,9.50
2019-04-01T08:46:09.446Z,9.60
2019-04-01T08:48:37.460Z,9.40
2019-04-01T08:51:08.279Z,9.40
2019-04-01T08:53:36.252Z,9.60
2019-04-01T08:56:04.355Z,9.90
2019-04-01T08:58:35.434Z,9.90
2019-04-01T09:01:03.541Z,10.00
2019-04-01T09:03:31.560Z,10.00
2019-04-01T09:06:02.727Z,10.00
2019-04-01T09:08:31.948Z,10.10
2019-04-01T09:11:04.288Z,10.00
2019-04-01T09:13:32.566Z,10.10
2019-04-01T09:16:00.967Z,10.20
2019-04-01T09:18:29.043Z,10.30
2019-04-01T09:20:57.036Z,10.30
2019-04-01T09:27:22.920Z,10.30
2019-04-01T09:59:25.242Z,11.00
2019-04-01T10:02:31.666Z,11.20
2019-04-01T10:44:07.131Z,12.80
2019-04-01T10:50:08.936Z,13.10
2019-04-01T10:52:44.246Z,13.30
2019-04-01T10:55:12.939Z,13.20
2019-04-01T10:57:44.896Z,13.20
2019-04-01T11:11:41.027Z,14.10
2019-04-01T11:20:44.415Z,14.40
2019-04-01T11:26:45.317Z,14.70
2019-04-01T11:42:40.883Z,15.00
2019-04-01T11:48:53.832Z,15.70
2019-04-01T11:51:41.934Z,16.00
2019-04-01T11:58:18.664Z,16.10
2019-04-01T12:07:31.694Z,16.60
2019-04-01T13:04:14.539Z,24.30
2019-04-01T13:49:12.515Z,26.90
2019-04-01T13:51:54.845Z,25.60
2019-04-01T13:54:36.197Z,27.10
2019-04-01T13:57:09.865Z,26.30
2019-04-01T14:04:02.866Z,25.60
2019-04-01T14:06:54.978Z,25.10
2019-04-01T14:13:10.540Z,25.30
2019-04-01T14:15:42.903Z,25.60
2019-04-01T14:18:39.440Z,24.90
2019-04-01T14:21:28.273Z,24.60
2019-04-01T14:24:25.084Z,24.70
2019-04-01T14:27:13.262Z,25.00
2019-04-01T14:33:14.965Z,23.60
2019-04-01T14:40:06.548Z,23.90
2019-04-01T14:42:59.379Z,23.80
2019-04-01T14:45:47.849Z,23.10
2019-04-01T14:52:32.694Z,22.80
2019-04-01T14:54:55.126Z,23.10
2019-04-01T15:01:01.245Z,23.20
2019-04-01T15:07:33.647Z,22.00
2019-04-01T15:10:52.610Z,22.80
2019-04-01T15:13:46.485Z,23.20
2019-04-01T15:16:44.492Z,23.60
2019-04-01T15:19:20.720Z,24.20
2019-04-01T15:22:52.410Z,24.40
2019-04-01T15:25:24.015Z,23.50
2019-04-01T15:28:02.417Z,22.60
2019-04-01T15:34:37.044Z,25.40
2019-04-01T15:38:16.082Z,25.90
2019-04-01T15:40:47.204Z,24.90
2019-04-01T15:43:23.196Z,24.90
2019-04-01T15:45:52.395Z,25.00
2019-04-01T15:48:22.002Z,25.90
2019-04-01T15:50:58.837Z,25.80
2019-04-01T15:53:28.209Z,26.10
2019-04-01T15:55:57.214Z,25.40
2019-04-01T15:58:26.429Z,23.70
2019-04-01T16:00:57.173Z,24.10
2019-04-01T16:03:54.683Z,25.40
2019-04-01T16:06:24.210Z,25.20
2019-04-01T16:08:54.287Z,26.20
2019-04-01T16:11:33.601Z,24.60
2019-04-01T16:14:19.157Z,23.70
2019-04-01T16:16:47.049Z,24.70
2019-04-01T16:19:29.058Z,25.00
2019-04-01T16:31:41.148Z,23.40
2019-04-01T16:37:38.299Z,22.70
2019-04-01T16:40:07.398Z,21.90
2019-04-01T16:42:38.246Z,21.00
2019-04-01T17:16:16.560Z,16.80
2019-04-01T17:31:48.518Z,15.70
2019-04-01T17:34:54.593Z,15.50
2019-04-01T17:37:29.251Z,15.30
2019-04-01T17:43:30.698Z,15.00
2019-04-01T17:46:17.389Z,14.90
2019-04-01T17:49:04.632Z,14.70
2019-04-01T17:51:53.817Z,14.40
2019-04-01T17:54:21.892Z,14.10
2019-04-01T18:03:48.025Z,13.20
2019-04-01T18:09:47.473Z,13.10
2019-04-01T18:12:52.018Z,13.00
2019-04-01T18:15:37.150Z,13.00
2019-04-01T18:30:17.175Z,12.30
2019-04-01T18:32:46.449Z,12.20
2019-04-01T18:35:20.587Z,12.20
2019-04-01T18:38:00.841Z,12.00
2019-04-01T18:40:52.756Z,12.00
2019-04-01T18:43:49.365Z,11.70
2019-04-01T18:53:10.288Z,11.50
2019-04-01T18:56:11.704Z,11.30
2019-04-01T18:58:48.596Z,11.40
2019-04-01T19:01:39.964Z,11.60
2019-04-01T19:04:19.671Z,11.70
2019-04-01T19:07:24.678Z,11.80
2019-04-01T19:14:33.995Z,12.00
2019-04-01T19:17:18.787Z,12.00
2019-04-01T19:20:08.211Z,12.00
2019-04-01T19:22:37.209Z,12.00
2019-04-01T19:25:43.176Z,11.90
2019-04-01T19:31:34.062Z,11.70
2019-04-01T19:34:08.891Z,11.70
2019-04-01T19:47:59.414Z,11.60
2019-04-01T20:01:15.603Z,11.30
2019-04-01T20:03:43.953Z,11.20
2019-04-01T20:06:58.210Z,11.30
2019-04-01T20:10:10.698Z,11.20
2019-04-01T20:12:58.050Z,11.10
2019-04-01T20:25:53.722Z,10.90
2019-04-01T20:50:13.714Z,10.70
2019-04-01T20:51:09.325Z,10.60
2019-04-01T20:53:38.337Z,10.60
2019-04-01T20:56:16.343Z,10.60
2019-04-01T20:58:44.931Z,10.50
2019-04-01T21:01:19.676Z,10.40
2019-04-01T21:03:47.775Z,10.40
2019-04-01T21:06:16.012Z,10.50
2019-04-01T21:08:44.107Z,10.40
2019-04-01T21:11:14.790Z,10.40
2019-04-01T21:13:46.944Z,10.40
2019-04-01T21:26:49.042Z,10.60
2019-04-01T21:29:18.022Z,10.60
2019-04-01T21:38:54.291Z,10.60
2019-04-01T21:41:25.881Z,10.50
2019-04-01T21:53:14.313Z,10.50
2019-04-01T21:55:47.759Z,10.50
2019-04-01T22:01:25.932Z,10.30
2019-04-01T22:14:08.765Z,10.00
2019-04-01T22:16:51.840Z,10.00
2019-04-01T22:19:20.334Z,9.90
2019-04-01T22:22:10.343Z,9.80
2019-04-01T22:28:10.974Z,9.80
2019-04-01T22:30:54.463Z,9.80
2019-04-01T22:33:22.890Z,9.80
2019-04-01T22:39:26.606Z,9.60
2019-04-01T22:42:06.172Z,9.50
2019-04-01T22:44:37.920Z,9.40
2019-04-01T23:00:18.948Z,9.20
2019-04-01T23:02:58.272Z,9.00
2019-04-01T23:05:28.199Z,9.00
2019-04-01T23:08:34.078Z,8.90
2019-04-01T23:11:05.702Z,8.80
2019-04-01T23:14:20.703Z,8.80
2019-04-01T23:16:59.857Z,8.90
2019-04-01T23:19:28.539Z,8.90
2019-04-01T23:21:57.840Z,8.80
2019-04-01T23:24:30.726Z,8.80
2019-04-01T23:27:02.977Z,8.80
2019-04-01T23:29:38.186Z,8.70
2019-04-01T23:38:56.711Z,8.40
2019-04-01T23:41:27.342Z,8.40
2019-04-01T23:50:55.611Z,8.00
2019-04-01T23:53:27.244Z,7.90
